sensor_id;sensor_type;location;lat;lon;timestamp;pressure;altitude;pressure_sealevel;temperature;humidity
6615;BME280;3343;42.896;23.912;2023-02-16T00:00:29;97781.38;;;3.53;81.54
6615;BME280;3343;42.896;23.912;2023-02-16T00:02:57;97782.63;;;3.00;83.57
6615;BME280;3343;42.896;23.912;2023-02-16T00:05:26;97779.97;;;2.88;84.75
6615;BME280;3343;42.896;23.912;2023-02-16T00:07:56;97777.25;;;2.66;87.87
6615;BME280;3343;42.896;23.912;2023-02-16T00:10:25;97783.91;;;2.45;89.73
6615;BME280;3343;42.896;23.912;2023-02-16T00:12:52;97776.00;;;2.46;89.86
6615;BME280;3343;42.896;23.912;2023-02-16T00:15:38;97773.06;;;3.00;88.24
6615;BME280;3343;42.896;23.912;2023-02-16T00:18:15;97773.50;;;3.42;85.67
6615;BME280;3343;42.896;23.912;2023-02-16T00:20:42;97774.63;;;3.50;83.96
6615;BME280;3343;42.896;23.912;2023-02-16T00:23:09;97768.28;;;3.42;83.39
6615;BME280;3343;42.896;23.912;2023-02-16T00:25:36;97774.91;;;3.46;82.97
6615;BME280;3343;42.896;23.912;2023-02-16T00:28:09;97774.44;;;3.41;83.10
6615;BME280;3343;42.896;23.912;2023-02-16T00:30:39;97779.81;;;3.27;83.28
6615;BME280;3343;42.896;23.912;2023-02-16T00:33:13;97778.59;;;3.43;82.88
6615;BME280;3343;42.896;23.912;2023-02-16T00:35:41;97780.59;;;3.16;82.98
6615;BME280;3343;42.896;23.912;2023-02-16T00:38:09;97772.16;;;3.36;82.30
6615;BME280;3343;42.896;23.912;2023-02-16T00:40:36;97769.69;;;3.35;82.38
6615;BME280;3343;42.896;23.912;2023-02-16T00:43:03;97773.41;;;2.96;84.56
6615;BME280;3343;42.896;23.912;2023-02-16T00:45:32;97777.00;;;3.30;83.99
6615;BME280;3343;42.896;23.912;2023-02-16T00:48:03;97777.53;;;3.46;82.45
6615;BME280;3343;42.896;23.912;2023-02-16T00:50:32;97781.53;;;3.39;81.48
6615;BME280;3343;42.896;23.912;2023-02-16T00:52:59;97775.59;;;3.37;81.83
6615;BME280;3343;42.896;23.912;2023-02-16T00:55:28;97767.78;;;3.37;82.33
6615;BME280;3343;42.896;23.912;2023-02-16T00:58:02;97771.22;;;3.37;82.36
6615;BME280;3343;42.896;23.912;2023-02-16T01:00:33;97774.31;;;3.42;82.20
6615;BME280;3343;42.896;23.912;2023-02-16T01:03:03;97761.75;;;3.36;82.58
6615;BME280;3343;42.896;23.912;2023-02-16T01:05:31;97764.25;;;3.38;82.29
6615;BME280;3343;42.896;23.912;2023-02-16T01:07:58;97761.31;;;3.42;81.46
6615;BME280;3343;42.896;23.912;2023-02-16T01:10:42;97758.88;;;3.52;80.98
6615;BME280;3343;42.896;23.912;2023-02-16T01:13:28;97756.22;;;3.41;80.82
6615;BME280;3343;42.896;23.912;2023-02-16T01:15:55;97749.19;;;3.30;80.77
6615;BME280;3343;42.896;23.912;2023-02-16T01:18:23;97750.91;;;3.42;80.33
6615;BME280;3343;42.896;23.912;2023-02-16T01:20:50;97757.63;;;3.34;79.97
6615;BME280;3343;42.896;23.912;2023-02-16T01:23:17;97752.91;;;3.39;79.96
6615;BME280;3343;42.896;23.912;2023-02-16T01:25:44;97755.09;;;2.97;81.18
6615;BME280;3343;42.896;23.912;2023-02-16T01:28:17;97755.97;;;3.09;81.65
6615;BME280;3343;42.896;23.912;2023-02-16T01:30:45;97754.09;;;2.87;82.14
6615;BME280;3343;42.896;23.912;2023-02-16T01:33:11;97745.13;;;2.91;81.88
6615;BME280;3343;42.896;23.912;2023-02-16T01:35:40;97746.78;;;3.16;81.09
6615;BME280;3343;42.896;23.912;2023-02-16T01:38:13;97733.16;;;3.12;80.11
6615;BME280;3343;42.896;23.912;2023-02-16T01:40:43;97742.72;;;3.36;79.20
6615;BME280;3343;42.896;23.912;2023-02-16T01:43:18;97739.28;;;3.35;79.11
6615;BME280;3343;42.896;23.912;2023-02-16T01:45:50;97734.78;;;3.37;79.47
6615;BME280;3343;42.896;23.912;2023-02-16T01:48:24;97744.50;;;3.35;78.70
6615;BME280;3343;42.896;23.912;2023-02-16T01:50:55;97743.88;;;3.32;79.02
6615;BME280;3343;42.896;23.912;2023-02-16T01:53:29;97738.69;;;3.32;78.26
6615;BME280;3343;42.896;23.912;2023-02-16T01:55:59;97741.28;;;3.32;78.51
6615;BME280;3343;42.896;23.912;2023-02-16T01:58:34;97741.47;;;3.17;78.73
6615;BME280;3343;42.896;23.912;2023-02-16T02:04:22;97738.31;;;2.77;80.90
6615;BME280;3343;42.896;23.912;2023-02-16T02:07:15;97729.53;;;2.54;83.01
6615;BME280;3343;42.896;23.912;2023-02-16T02:09:50;97744.88;;;2.21;83.89
6615;BME280;3343;42.896;23.912;2023-02-16T02:12:26;97736.59;;;2.03;86.25
6615;BME280;3343;42.896;23.912;2023-02-16T02:14:54;97739.91;;;1.80;87.10
6615;BME280;3343;42.896;23.912;2023-02-16T02:17:22;97737.00;;;1.97;87.89
6615;BME280;3343;42.896;23.912;2023-02-16T02:19:56;97737.16;;;2.32;86.79
6615;BME280;3343;42.896;23.912;2023-02-16T02:22:50;97732.19;;;2.78;83.31
6615;BME280;3343;42.896;23.912;2023-02-16T02:26:16;97734.41;;;2.96;82.10
6615;BME280;3343;42.896;23.912;2023-02-16T02:28:53;97734.84;;;2.90;83.30
6615;BME280;3343;42.896;23.912;2023-02-16T02:31:32;97739.31;;;2.87;81.55
6615;BME280;3343;42.896;23.912;2023-02-16T02:34:11;97732.69;;;2.83;81.50
6615;BME280;3343;42.896;23.912;2023-02-16T02:36:48;97731.91;;;2.70;82.49
6615;BME280;3343;42.896;23.912;2023-02-16T02:39:26;97733.13;;;2.77;81.95
6615;BME280;3343;42.896;23.912;2023-02-16T02:42:02;97731.00;;;2.46;81.57
6615;BME280;3343;42.896;23.912;2023-02-16T02:44:36;97731.72;;;2.61;81.12
6615;BME280;3343;42.896;23.912;2023-02-16T02:47:05;97735.69;;;2.41;81.30
6615;BME280;3343;42.896;23.912;2023-02-16T02:49:32;97723.84;;;2.37;81.69
6615;BME280;3343;42.896;23.912;2023-02-16T02:51:59;97731.59;;;2.13;82.92
6615;BME280;3343;42.896;23.912;2023-02-16T02:54:28;97736.91;;;1.99;84.85
6615;BME280;3343;42.896;23.912;2023-02-16T02:57:17;97739.69;;;2.21;84.16
6615;BME280;3343;42.896;23.912;2023-02-16T03:00:06;97733.75;;;2.32;84.07
6615;BME280;3343;42.896;23.912;2023-02-16T03:02:55;97735.97;;;2.62;82.61
6615;BME280;3343;42.896;23.912;2023-02-16T03:05:26;97733.06;;;2.90;81.33
6615;BME280;3343;42.896;23.912;2023-02-16T03:07:57;97732.56;;;2.85;79.96
6615;BME280;3343;42.896;23.912;2023-02-16T03:10:40;97729.00;;;2.62;80.05
6615;BME280;3343;42.896;23.912;2023-02-16T03:13:29;97737.09;;;2.21;81.95
6615;BME280;3343;42.896;23.912;2023-02-16T03:16:01;97736.16;;;2.22;83.95
6615;BME280;3343;42.896;23.912;2023-02-16T03:18:31;97727.00;;;2.29;84.81
6615;BME280;3343;42.896;23.912;2023-02-16T03:21:18;97718.28;;;2.17;83.57
6615;BME280;3343;42.896;23.912;2023-02-16T03:24:04;97713.59;;;2.59;82.17
6615;BME280;3343;42.896;23.912;2023-02-16T03:26:53;97720.41;;;2.49;82.09
6615;BME280;3343;42.896;23.912;2023-02-16T03:29:38;97718.19;;;2.55;82.42
6615;BME280;3343;42.896;23.912;2023-02-16T03:32:07;97718.78;;;2.72;81.24
6615;BME280;3343;42.896;23.912;2023-02-16T03:34:35;97719.22;;;2.66;79.95
6615;BME280;3343;42.896;23.912;2023-02-16T03:37:02;97716.75;;;2.51;80.36
6615;BME280;3343;42.896;23.912;2023-02-16T03:39:31;97712.81;;;2.46;81.20
6615;BME280;3343;42.896;23.912;2023-02-16T03:42:19;97714.03;;;2.66;80.35
6615;BME280;3343;42.896;23.912;2023-02-16T03:44:47;97720.63;;;2.46;79.81
6615;BME280;3343;42.896;23.912;2023-02-16T03:47:15;97720.91;;;2.54;80.28
6615;BME280;3343;42.896;23.912;2023-02-16T03:49:42;97724.09;;;2.21;81.00
6615;BME280;3343;42.896;23.912;2023-02-16T03:52:09;97724.75;;;2.12;81.43
6615;BME280;3343;42.896;23.912;2023-02-16T03:54:36;97727.25;;;2.01;83.10
6615;BME280;3343;42.896;23.912;2023-02-16T03:57:03;97726.38;;;2.26;82.32
6615;BME280;3343;42.896;23.912;2023-02-16T03:59:29;97719.41;;;2.26;80.90
6615;BME280;3343;42.896;23.912;2023-02-16T04:01:56;97726.56;;;2.35;80.10
6615;BME280;3343;42.896;23.912;2023-02-16T04:04:26;97720.94;;;2.41;81.32
6615;BME280;3343;42.896;23.912;2023-02-16T04:06:52;97717.88;;;2.11;81.70
6615;BME280;3343;42.896;23.912;2023-02-16T04:09:19;97721.53;;;1.83;84.71
6615;BME280;3343;42.896;23.912;2023-02-16T04:11:46;97728.91;;;2.02;83.20
6615;BME280;3343;42.896;23.912;2023-02-16T04:14:30;97719.22;;;2.16;81.75
6615;BME280;3343;42.896;23.912;2023-02-16T04:16:57;97722.72;;;2.28;81.91
6615;BME280;3343;42.896;23.912;2023-02-16T04:19:25;97715.75;;;2.41;81.13
6615;BME280;3343;42.896;23.912;2023-02-16T04:21:52;97718.38;;;2.29;80.82
6615;BME280;3343;42.896;23.912;2023-02-16T04:24:19;97720.00;;;2.42;80.00
6615;BME280;3343;42.896;23.912;2023-02-16T04:26:46;97713.66;;;2.46;79.46
6615;BME280;3343;42.896;23.912;2023-02-16T04:29:14;97719.16;;;1.80;83.22
6615;BME280;3343;42.896;23.912;2023-02-16T04:31:41;97716.75;;;1.89;82.94
6615;BME280;3343;42.896;23.912;2023-02-16T04:34:08;97718.75;;;1.86;83.57
6615;BME280;3343;42.896;23.912;2023-02-16T04:36:36;97715.19;;;2.00;84.38
6615;BME280;3343;42.896;23.912;2023-02-16T04:39:03;97720.47;;;2.11;82.99
6615;BME280;3343;42.896;23.912;2023-02-16T04:41:30;97717.78;;;2.00;81.54
6615;BME280;3343;42.896;23.912;2023-02-16T04:43:57;97711.66;;;2.13;81.37
6615;BME280;3343;42.896;23.912;2023-02-16T04:46:24;97721.84;;;2.04;81.13
6615;BME280;3343;42.896;23.912;2023-02-16T04:48:51;97720.69;;;2.08;81.24
6615;BME280;3343;42.896;23.912;2023-02-16T04:51:18;97719.84;;;2.20;80.39
6615;BME280;3343;42.896;23.912;2023-02-16T04:53:46;97721.19;;;2.26;80.07
6615;BME280;3343;42.896;23.912;2023-02-16T04:56:13;97716.00;;;2.26;79.40
6615;BME280;3343;42.896;23.912;2023-02-16T04:58:40;97714.97;;;2.15;79.53
6615;BME280;3343;42.896;23.912;2023-02-16T05:01:07;97715.81;;;1.90;79.57
6615;BME280;3343;42.896;23.912;2023-02-16T05:03:34;97722.88;;;2.01;80.43
6615;BME280;3343;42.896;23.912;2023-02-16T05:06:01;97721.63;;;2.07;80.23
6615;BME280;3343;42.896;23.912;2023-02-16T05:08:28;97722.16;;;1.86;80.61
6615;BME280;3343;42.896;23.912;2023-02-16T05:10:56;97717.25;;;2.07;80.33
6615;BME280;3343;42.896;23.912;2023-02-16T05:13:40;97720.47;;;1.60;81.54
6615;BME280;3343;42.896;23.912;2023-02-16T05:16:25;97735.56;;;1.80;80.59
6615;BME280;3343;42.896;23.912;2023-02-16T05:18:52;97726.31;;;1.89;80.21
6615;BME280;3343;42.896;23.912;2023-02-16T05:21:18;97727.25;;;1.88;80.04
6615;BME280;3343;42.896;23.912;2023-02-16T05:23:58;97724.56;;;1.89;79.77
6615;BME280;3343;42.896;23.912;2023-02-16T05:26:27;97726.59;;;1.72;80.65
6615;BME280;3343;42.896;23.912;2023-02-16T05:28:54;97723.38;;;1.68;81.08
6615;BME280;3343;42.896;23.912;2023-02-16T05:31:22;97722.06;;;1.75;80.76
6615;BME280;3343;42.896;23.912;2023-02-16T05:33:49;97733.03;;;1.66;81.21
6615;BME280;3343;42.896;23.912;2023-02-16T05:36:16;97725.03;;;1.56;81.82
6615;BME280;3343;42.896;23.912;2023-02-16T05:38:43;97728.72;;;1.79;82.05
6615;BME280;3343;42.896;23.912;2023-02-16T05:41:10;97740.44;;;2.10;81.13
6615;BME280;3343;42.896;23.912;2023-02-16T05:43:50;97742.88;;;2.37;80.99
6615;BME280;3343;42.896;23.912;2023-02-16T05:46:17;97750.25;;;2.80;80.93
6615;BME280;3343;42.896;23.912;2023-02-16T05:48:44;97736.25;;;3.17;80.47
6615;BME280;3343;42.896;23.912;2023-02-16T05:51:12;97747.13;;;3.81;77.04
6615;BME280;3343;42.896;23.912;2023-02-16T05:53:39;97752.38;;;4.26;74.63
6615;BME280;3343;42.896;23.912;2023-02-16T05:56:06;97755.91;;;4.81;71.55
6615;BME280;3343;42.896;23.912;2023-02-16T05:58:33;97761.78;;;5.37;67.88
6615;BME280;3343;42.896;23.912;2023-02-16T06:01:02;97751.56;;;5.87;65.85
6615;BME280;3343;42.896;23.912;2023-02-16T06:03:29;97741.91;;;5.99;62.56
6615;BME280;3343;42.896;23.912;2023-02-16T06:05:58;97759.25;;;6.61;60.65
6615;BME280;3343;42.896;23.912;2023-02-16T06:08:26;97756.41;;;6.74;59.62
6615;BME280;3343;42.896;23.912;2023-02-16T06:10:53;97760.63;;;6.95;59.07
6615;BME280;3343;42.896;23.912;2023-02-16T06:13:21;97760.09;;;7.11;58.59
6615;BME280;3343;42.896;23.912;2023-02-16T06:15:50;97757.63;;;7.48;58.15
6615;BME280;3343;42.896;23.912;2023-02-16T06:18:19;97759.41;;;7.77;56.17
6615;BME280;3343;42.896;23.912;2023-02-16T06:20:46;97755.97;;;8.32;54.03
6615;BME280;3343;42.896;23.912;2023-02-16T06:23:14;97745.84;;;8.10;53.32
6615;BME280;3343;42.896;23.912;2023-02-16T06:25:41;97749.03;;;8.04;55.65
6615;BME280;3343;42.896;23.912;2023-02-16T06:28:08;97747.84;;;8.26;55.99
6615;BME280;3343;42.896;23.912;2023-02-16T06:30:35;97751.41;;;8.44;55.15
6615;BME280;3343;42.896;23.912;2023-02-16T06:33:02;97752.88;;;8.56;56.07
6615;BME280;3343;42.896;23.912;2023-02-16T06:35:31;97747.91;;;8.53;56.79
6615;BME280;3343;42.896;23.912;2023-02-16T06:37:58;97743.84;;;8.31;58.74
6615;BME280;3343;42.896;23.912;2023-02-16T06:40:25;97755.38;;;8.85;55.13
6615;BME280;3343;42.896;23.912;2023-02-16T06:42:52;97759.88;;;9.38;54.44
6615;BME280;3343;42.896;23.912;2023-02-16T06:45:18;97758.84;;;9.67;53.42
6615;BME280;3343;42.896;23.912;2023-02-16T06:47:45;97761.09;;;9.62;53.73
6615;BME280;3343;42.896;23.912;2023-02-16T06:50:12;97764.72;;;8.98;56.08
6615;BME280;3343;42.896;23.912;2023-02-16T06:52:41;97760.16;;;8.25;59.10
6615;BME280;3343;42.896;23.912;2023-02-16T06:55:08;97770.16;;;7.93;60.99
6615;BME280;3343;42.896;23.912;2023-02-16T06:57:34;97765.44;;;8.06;61.72
6615;BME280;3343;42.896;23.912;2023-02-16T07:00:02;97770.66;;;8.72;59.36
6615;BME280;3343;42.896;23.912;2023-02-16T07:02:32;97770.25;;;8.94;58.35
6615;BME280;3343;42.896;23.912;2023-02-16T07:05:00;97771.13;;;9.31;57.83
6615;BME280;3343;42.896;23.912;2023-02-16T07:07:27;97766.94;;;9.73;56.91
6615;BME280;3343;42.896;23.912;2023-02-16T07:09:56;97766.66;;;10.46;54.56
6615;BME280;3343;42.896;23.912;2023-02-16T07:12:23;97769.66;;;10.51;53.78
6615;BME280;3343;42.896;23.912;2023-02-16T07:14:50;97764.53;;;10.83;53.40
6615;BME280;3343;42.896;23.912;2023-02-16T07:17:17;97764.25;;;11.03;52.58
6615;BME280;3343;42.896;23.912;2023-02-16T07:19:44;97754.97;;;11.41;51.52
6615;BME280;3343;42.896;23.912;2023-02-16T07:22:11;97762.75;;;11.75;48.99
6615;BME280;3343;42.896;23.912;2023-02-16T07:24:38;97761.44;;;11.95;48.57
6615;BME280;3343;42.896;23.912;2023-02-16T07:27:06;97759.47;;;12.22;48.25
6615;BME280;3343;42.896;23.912;2023-02-16T07:29:33;97749.38;;;11.68;47.51
6615;BME280;3343;42.896;23.912;2023-02-16T07:32:01;97752.34;;;10.82;50.10
6615;BME280;3343;42.896;23.912;2023-02-16T07:34:28;97757.94;;;10.88;51.25
6615;BME280;3343;42.896;23.912;2023-02-16T07:36:55;97760.81;;;10.60;52.33
6615;BME280;3343;42.896;23.912;2023-02-16T07:39:22;97755.63;;;10.84;51.56
6615;BME280;3343;42.896;23.912;2023-02-16T07:41:49;97754.53;;;10.53;52.54
6615;BME280;3343;42.896;23.912;2023-02-16T07:44:17;97743.91;;;10.71;52.70
6615;BME280;3343;42.896;23.912;2023-02-16T07:46:45;97749.09;;;10.55;53.67
6615;BME280;3343;42.896;23.912;2023-02-16T07:49:13;97734.44;;;11.02;51.97
6615;BME280;3343;42.896;23.912;2023-02-16T07:51:39;97734.06;;;10.81;53.15
6615;BME280;3343;42.896;23.912;2023-02-16T07:54:06;97734.97;;;11.14;51.68
6615;BME280;3343;42.896;23.912;2023-02-16T07:56:34;97717.91;;;11.34;50.57
6615;BME280;3343;42.896;23.912;2023-02-16T07:59:02;97717.25;;;11.32;50.65
6615;BME280;3343;42.896;23.912;2023-02-16T08:01:30;97716.75;;;11.61;49.82
6615;BME280;3343;42.896;23.912;2023-02-16T08:03:57;97712.16;;;11.55;50.28
6615;BME280;3343;42.896;23.912;2023-02-16T08:06:24;97719.09;;;11.89;49.26
6615;BME280;3343;42.896;23.912;2023-02-16T08:08:51;97714.88;;;12.43;47.58
6615;BME280;3343;42.896;23.912;2023-02-16T08:11:20;97712.03;;;13.23;45.02
6615;BME280;3343;42.896;23.912;2023-02-16T08:13:48;97713.47;;;13.33;44.66
6615;BME280;3343;42.896;23.912;2023-02-16T08:16:17;97694.94;;;13.33;43.61
6615;BME280;3343;42.896;23.912;2023-02-16T08:18:46;97709.63;;;13.59;43.83
6615;BME280;3343;42.896;23.912;2023-02-16T08:21:14;97720.16;;;13.90;43.09
6615;BME280;3343;42.896;23.912;2023-02-16T08:23:43;97721.19;;;14.33;40.95
6615;BME280;3343;42.896;23.912;2023-02-16T08:26:12;97722.00;;;14.19;40.47
6615;BME280;3343;42.896;23.912;2023-02-16T08:28:39;97717.41;;;13.98;41.21
6615;BME280;3343;42.896;23.912;2023-02-16T08:31:10;97723.81;;;14.03;41.56
6615;BME280;3343;42.896;23.912;2023-02-16T08:33:38;97719.72;;;14.01;41.78
6615;BME280;3343;42.896;23.912;2023-02-16T08:36:08;97718.47;;;14.26;42.09
6615;BME280;3343;42.896;23.912;2023-02-16T08:38:41;97719.44;;;13.96;42.49
6615;BME280;3343;42.896;23.912;2023-02-16T08:41:08;97718.41;;;14.49;41.19
6615;BME280;3343;42.896;23.912;2023-02-16T08:43:35;97725.59;;;15.00;39.82
6615;BME280;3343;42.896;23.912;2023-02-16T08:46:02;97718.81;;;14.97;41.57
6615;BME280;3343;42.896;23.912;2023-02-16T08:48:32;97720.28;;;15.00;42.06
6615;BME280;3343;42.896;23.912;2023-02-16T08:51:02;97708.06;;;14.84;42.95
6615;BME280;3343;42.896;23.912;2023-02-16T08:53:32;97718.09;;;15.03;42.58
6615;BME280;3343;42.896;23.912;2023-02-16T08:56:01;97716.28;;;14.89;43.30
6615;BME280;3343;42.896;23.912;2023-02-16T08:58:29;97718.56;;;14.62;44.98
6615;BME280;3343;42.896;23.912;2023-02-16T09:00:57;97727.31;;;14.33;45.29
6615;BME280;3343;42.896;23.912;2023-02-16T09:03:24;97727.50;;;14.32;45.99
6615;BME280;3343;42.896;23.912;2023-02-16T09:05:52;97733.00;;;14.45;46.15
6615;BME280;3343;42.896;23.912;2023-02-16T09:08:19;97716.19;;;14.68;44.89
6615;BME280;3343;42.896;23.912;2023-02-16T09:10:47;97720.66;;;14.96;44.19
6615;BME280;3343;42.896;23.912;2023-02-16T09:13:14;97722.03;;;15.28;42.82
6615;BME280;3343;42.896;23.912;2023-02-16T09:15:41;97716.41;;;15.38;42.98
6615;BME280;3343;42.896;23.912;2023-02-16T09:18:08;97716.84;;;15.42;42.13
6615;BME280;3343;42.896;23.912;2023-02-16T09:20:36;97719.44;;;15.14;43.61
6615;BME280;3343;42.896;23.912;2023-02-16T09:23:03;97705.41;;;15.20;43.13
6615;BME280;3343;42.896;23.912;2023-02-16T09:25:33;97706.16;;;15.71;41.92
6615;BME280;3343;42.896;23.912;2023-02-16T09:28:03;97715.16;;;15.98;40.39
6615;BME280;3343;42.896;23.912;2023-02-16T09:30:30;97710.22;;;15.67;40.72
6615;BME280;3343;42.896;23.912;2023-02-16T09:32:57;97702.56;;;15.79;40.11
6615;BME280;3343;42.896;23.912;2023-02-16T09:35:24;97704.00;;;15.60;41.80
6615;BME280;3343;42.896;23.912;2023-02-16T09:37:52;97692.66;;;15.94;40.38
6615;BME280;3343;42.896;23.912;2023-02-16T09:40:19;97698.50;;;16.11;38.77
6615;BME280;3343;42.896;23.912;2023-02-16T09:42:56;97693.66;;;16.49;38.24
6615;BME280;3343;42.896;23.912;2023-02-16T09:45:30;97688.19;;;17.05;37.57
6615;BME280;3343;42.896;23.912;2023-02-16T09:48:00;97674.31;;;17.16;36.50
6615;BME280;3343;42.896;23.912;2023-02-16T09:50:31;97687.59;;;17.09;36.58
6615;BME280;3343;42.896;23.912;2023-02-16T09:53:02;97686.78;;;17.22;36.84
6615;BME280;3343;42.896;23.912;2023-02-16T09:55:37;97682.09;;;17.17;36.72
6615;BME280;3343;42.896;23.912;2023-02-16T09:58:11;97683.44;;;16.94;36.81
6615;BME280;3343;42.896;23.912;2023-02-16T10:00:48;97678.88;;;16.74;37.99
6615;BME280;3343;42.896;23.912;2023-02-16T10:03:33;97679.31;;;16.78;37.57
6615;BME280;3343;42.896;23.912;2023-02-16T10:06:14;97672.69;;;17.22;36.71
6615;BME280;3343;42.896;23.912;2023-02-16T10:08:49;97675.22;;;17.63;35.87
6615;BME280;3343;42.896;23.912;2023-02-16T10:11:23;97672.97;;;17.93;35.05
6615;BME280;3343;42.896;23.912;2023-02-16T10:14:16;97665.38;;;18.23;34.52
6615;BME280;3343;42.896;23.912;2023-02-16T10:16:51;97668.06;;;18.23;33.79
6615;BME280;3343;42.896;23.912;2023-02-16T10:19:25;97664.97;;;18.26;33.49
6615;BME280;3343;42.896;23.912;2023-02-16T10:21:57;97651.97;;;18.62;33.68
6615;BME280;3343;42.896;23.912;2023-02-16T10:24:27;97645.19;;;18.66;30.78
6615;BME280;3343;42.896;23.912;2023-02-16T10:27:00;97652.72;;;18.76;31.32
6615;BME280;3343;42.896;23.912;2023-02-16T10:29:28;97647.78;;;18.80;30.59
6615;BME280;3343;42.896;23.912;2023-02-16T10:32:03;97649.72;;;18.53;28.67
6615;BME280;3343;42.896;23.912;2023-02-16T10:34:47;97636.47;;;18.26;28.92
6615;BME280;3343;42.896;23.912;2023-02-16T10:37:22;97640.81;;;17.94;29.42
6615;BME280;3343;42.896;23.912;2023-02-16T10:40:01;97637.56;;;17.72;30.09
6615;BME280;3343;42.896;23.912;2023-02-16T10:42:37;97633.63;;;18.01;29.51
6615;BME280;3343;42.896;23.912;2023-02-16T10:45:18;97640.16;;;18.25;29.46
6615;BME280;3343;42.896;23.912;2023-02-16T10:47:48;97631.59;;;17.97;30.22
6615;BME280;3343;42.896;23.912;2023-02-16T10:50:21;97629.50;;;18.32;29.73
6615;BME280;3343;42.896;23.912;2023-02-16T10:52:51;97626.13;;;18.63;28.73
6615;BME280;3343;42.896;23.912;2023-02-16T10:55:21;97617.50;;;18.67;27.89
6615;BME280;3343;42.896;23.912;2023-02-16T10:57:53;97613.38;;;19.09;27.80
6615;BME280;3343;42.896;23.912;2023-02-16T11:00:26;97603.16;;;19.31;27.15
6615;BME280;3343;42.896;23.912;2023-02-16T11:02:56;97603.25;;;19.75;26.92
6615;BME280;3343;42.896;23.912;2023-02-16T11:05:33;97608.19;;;19.46;28.39
6615;BME280;3343;42.896;23.912;2023-02-16T11:08:01;97598.38;;;19.40;27.38
6615;BME280;3343;42.896;23.912;2023-02-16T11:10:38;97599.81;;;19.67;26.28
6615;BME280;3343;42.896;23.912;2023-02-16T11:13:10;97596.56;;;19.65;26.84
6615;BME280;3343;42.896;23.912;2023-02-16T11:15:49;97596.97;;;19.87;25.79
6615;BME280;3343;42.896;23.912;2023-02-16T11:18:28;97602.28;;;20.12;25.61
6615;BME280;3343;42.896;23.912;2023-02-16T11:20:58;97590.81;;;19.87;24.98
6615;BME280;3343;42.896;23.912;2023-02-16T11:23:28;97593.00;;;19.96;24.32
6615;BME280;3343;42.896;23.912;2023-02-16T11:25:59;97590.38;;;19.90;24.23
6615;BME280;3343;42.896;23.912;2023-02-16T11:28:30;97586.22;;;19.94;23.99
6615;BME280;3343;42.896;23.912;2023-02-16T11:31:02;97581.81;;;20.24;23.50
6615;BME280;3343;42.896;23.912;2023-02-16T11:33:31;97580.84;;;20.55;23.27
6615;BME280;3343;42.896;23.912;2023-02-16T11:36:00;97580.47;;;20.33;23.56
6615;BME280;3343;42.896;23.912;2023-02-16T11:38:31;97572.75;;;20.25;23.42
6615;BME280;3343;42.896;23.912;2023-02-16T11:40:59;97568.00;;;20.09;24.03
6615;BME280;3343;42.896;23.912;2023-02-16T11:43:29;97565.31;;;20.46;23.50
6615;BME280;3343;42.896;23.912;2023-02-16T11:46:00;97556.25;;;20.47;22.66
6615;BME280;3343;42.896;23.912;2023-02-16T11:48:29;97564.47;;;20.82;22.15
6615;BME280;3343;42.896;23.912;2023-02-16T11:51:00;97543.44;;;20.97;22.27
6615;BME280;3343;42.896;23.912;2023-02-16T11:53:29;97555.69;;;21.05;22.57
6615;BME280;3343;42.896;23.912;2023-02-16T11:56:14;97551.38;;;20.74;24.35
6615;BME280;3343;42.896;23.912;2023-02-16T11:58:43;97549.69;;;19.69;24.07
6615;BME280;3343;42.896;23.912;2023-02-16T12:01:18;97551.22;;;19.59;24.46
6615;BME280;3343;42.896;23.912;2023-02-16T12:03:58;97542.34;;;19.83;25.09
6615;BME280;3343;42.896;23.912;2023-02-16T12:06:43;97539.25;;;20.04;24.91
6615;BME280;3343;42.896;23.912;2023-02-16T12:09:21;97533.22;;;20.27;24.37
6615;BME280;3343;42.896;23.912;2023-02-16T12:11:59;97526.84;;;20.47;24.56
6615;BME280;3343;42.896;23.912;2023-02-16T12:14:36;97524.31;;;20.82;24.00
6615;BME280;3343;42.896;23.912;2023-02-16T12:17:20;97526.81;;;21.07;23.46
6615;BME280;3343;42.896;23.912;2023-02-16T12:19:56;97521.53;;;21.42;24.00
6615;BME280;3343;42.896;23.912;2023-02-16T12:22:33;97517.50;;;20.97;23.76
6615;BME280;3343;42.896;23.912;2023-02-16T12:25:19;97515.63;;;20.38;23.91
6615;BME280;3343;42.896;23.912;2023-02-16T12:27:53;97518.69;;;20.23;24.99
6615;BME280;3343;42.896;23.912;2023-02-16T12:30:30;97514.66;;;20.32;24.22
6615;BME280;3343;42.896;23.912;2023-02-16T12:33:14;97490.75;;;20.38;24.33
6615;BME280;3343;42.896;23.912;2023-02-16T12:36:00;97509.72;;;20.66;24.21
6615;BME280;3343;42.896;23.912;2023-02-16T12:38:41;97506.25;;;20.77;23.40
6615;BME280;3343;42.896;23.912;2023-02-16T12:41:19;97491.50;;;20.45;24.49
6615;BME280;3343;42.896;23.912;2023-02-16T12:43:51;97497.50;;;20.70;24.68
6615;BME280;3343;42.896;23.912;2023-02-16T12:46:23;97490.31;;;20.71;24.92
6615;BME280;3343;42.896;23.912;2023-02-16T12:48:56;97491.28;;;20.46;24.83
6615;BME280;3343;42.896;23.912;2023-02-16T12:53:58;97491.81;;;20.66;24.34
6615;BME280;3343;42.896;23.912;2023-02-16T12:56:35;97490.66;;;20.74;24.14
6615;BME280;3343;42.896;23.912;2023-02-16T12:59:16;97491.81;;;20.66;24.16
6615;BME280;3343;42.896;23.912;2023-02-16T13:01:45;97487.19;;;20.25;24.83
6615;BME280;3343;42.896;23.912;2023-02-16T13:04:18;97481.69;;;20.39;24.64
6615;BME280;3343;42.896;23.912;2023-02-16T13:06:51;97482.78;;;20.01;23.89
6615;BME280;3343;42.896;23.912;2023-02-16T13:09:31;97474.44;;;19.91;24.01
6615;BME280;3343;42.896;23.912;2023-02-16T13:12:06;97472.22;;;20.06;23.67
6615;BME280;3343;42.896;23.912;2023-02-16T13:14:39;97470.06;;;20.15;24.13
6615;BME280;3343;42.896;23.912;2023-02-16T13:17:11;97467.72;;;20.07;24.92
6615;BME280;3343;42.896;23.912;2023-02-16T13:19:41;97462.88;;;20.15;25.30
6615;BME280;3343;42.896;23.912;2023-02-16T13:22:21;97455.25;;;20.30;24.54
6615;BME280;3343;42.896;23.912;2023-02-16T13:25:01;97455.59;;;20.04;24.87
6615;BME280;3343;42.896;23.912;2023-02-16T13:27:36;97454.41;;;19.82;25.52
6615;BME280;3343;42.896;23.912;2023-02-16T13:30:31;97459.91;;;20.05;25.25
6615;BME280;3343;42.896;23.912;2023-02-16T13:33:10;97456.94;;;20.13;25.47
6615;BME280;3343;42.896;23.912;2023-02-16T13:36:16;97457.59;;;19.90;25.30
6615;BME280;3343;42.896;23.912;2023-02-16T13:39:15;97448.47;;;19.80;25.45
6615;BME280;3343;42.896;23.912;2023-02-16T13:44:48;97444.69;;;20.06;25.65
6615;BME280;3343;42.896;23.912;2023-02-16T13:47:19;97446.06;;;20.26;25.75
6615;BME280;3343;42.896;23.912;2023-02-16T13:49:55;97445.59;;;20.29;25.45